Ely, MN

1:37 AM CST on March 01, 2015 (GMT -0600)
RAWS ELY MN US | Change Station
CLOSE
Current Station
Personal Weather Station
Location: Ely, MN
Elevation: 1455 ft
Nearby Weather Stations

Elev 1455 ft 47.83 °N, 91.84 °W | Updated 33 minutes ago

Overcast
Overcast
11 °F
Feels Like -2 °F
N
9
Wind Variable Wind from SSW
Gusts 17.0 mph

Today
High -- | Low -- °F
--% Chance of Precip.
Yesterday
High -- | Low -- °F
Precip. -- in
6:48 AM 5:51 PM
Waxing Gibbous, 83% visible
Pressure 30.11 in
Visibility 7.0 miles
Clouds Overcast 8000 ft
Windchill -2 °F
Dew Point 3 °F
Humidity 71%
Rainfall 0.00 in
Snow Depth Not available.
UV 0 out of 12
Pollen .10 out of 12
Air Quality Not available.
Flu Activity Not available.
METAR KELO 010701Z AUTO 21006KT 7SM OVC080 M12/M15 A3011 RMK AO2

More Conditions Fewer Conditions

Pressure 30.11 in
Visibility 7.0 miles
Clouds Overcast 8000 ft
Windchill -2 °F
Dew Point 3 °F
Humidity 71%
Rainfall 0.00 in
Snow Depth Not available.
UV 0 out of 12
Pollen .10 out of 12
Air Quality Not available.
Flu Activity Not available.
METAR KELO 010701Z AUTO 21006KT 7SM OVC080 M12/M15 A3011 RMK AO2

More Conditions Fewer Conditions

10-Day Weather Forecast

Almanac

Astronomy

Mar. 01, 2015 Rise Set
Actual Time
Civil Twilight
Nautical Twilight
Astronomical Twilight
Moon
Length of Visible Light
Length of Day
Tomorrow will be .
, % of the Moon is Illuminated

Today's Extremes

State Highs State Lows

Community

WunderPhotos

Upload Photos

1,801,347 photos uploaded!

WunderBlogs® & News

Nearby

Air Quality

  Air Quality AQ Index Pollutant
Not available.

Snow Depth

Station Depth Elevation

Earthquake Activity

City Distance Mag. Time & Date
Minimum magnitude displayed is 2.5.

Coastal Water Temperatures

Place Temperature

Nearby Weather Stations